createdAt,value
2018-06-16T00:01:43.745Z,61.02
2018-06-16T00:04:11.158Z,60.90
2018-06-16T00:06:38.699Z,61.24
2018-06-16T00:09:06.112Z,60.77
2018-06-16T00:11:33.739Z,60.92
2018-06-16T00:14:01.842Z,60.99
2018-06-16T00:16:29.351Z,61.10
2018-06-16T00:18:56.869Z,61.02
2018-06-16T00:21:24.349Z,61.09
2018-06-16T00:23:51.840Z,61.55
2018-06-16T00:26:19.334Z,61.24
2018-06-16T00:28:46.786Z,61.47
2018-06-16T00:31:14.210Z,61.55
2018-06-16T00:33:41.714Z,61.35
2018-06-16T00:36:09.268Z,61.27
2018-06-16T00:38:36.688Z,61.68
2018-06-16T00:41:04.092Z,61.55
2018-06-16T00:43:31.514Z,61.57
2018-06-16T00:45:59.297Z,61.74
2018-06-16T00:48:26.754Z,62.55
2018-06-16T00:50:54.219Z,63.32
2018-06-16T00:53:21.663Z,63.67
2018-06-16T00:55:49.059Z,63.81
2018-06-16T00:58:16.581Z,64.18
2018-06-16T01:00:44.036Z,64.31
2018-06-16T01:03:11.510Z,64.30
2018-06-16T01:05:38.913Z,63.85
2018-06-16T01:08:06.353Z,64.06
2018-06-16T01:10:33.799Z,63.43
2018-06-16T01:15:35.074Z,63.25
2018-06-16T01:18:02.519Z,63.28
2018-06-16T01:20:29.960Z,63.27
2018-06-16T01:22:57.425Z,63.30
2018-06-16T01:25:24.871Z,63.23
2018-06-16T01:27:52.357Z,63.52
2018-06-16T01:30:19.791Z,63.75
2018-06-16T01:32:47.241Z,64.02
2018-06-16T01:35:14.685Z,64.31
2018-06-16T01:37:42.134Z,64.74
2018-06-16T01:40:09.561Z,64.96
2018-06-16T01:42:36.998Z,65.26
2018-06-16T01:45:04.465Z,65.59
2018-06-16T01:47:31.946Z,65.33
2018-06-16T01:49:59.334Z,65.27
2018-06-16T01:52:26.750Z,64.44
2018-06-16T01:54:54.143Z,64.70
2018-06-16T01:57:21.612Z,64.80
2018-06-16T01:59:49.047Z,64.20
2018-06-16T02:02:16.516Z,65.27
2018-06-16T02:04:43.991Z,65.47
2018-06-16T02:07:11.401Z,65.05
2018-06-16T02:09:38.890Z,64.88
2018-06-16T02:12:06.326Z,64.61
2018-06-16T02:14:33.874Z,64.44
2018-06-16T02:17:01.380Z,64.95
2018-06-16T02:19:28.886Z,65.24
2018-06-16T02:21:56.321Z,65.53
2018-06-16T02:24:23.831Z,65.79
2018-06-16T02:26:52.168Z,66.22
2018-06-16T02:29:19.600Z,66.55
2018-06-16T02:31:47.084Z,66.72
2018-06-16T02:34:15.077Z,67.14
2018-06-16T02:36:42.555Z,67.12
2018-06-16T02:39:09.983Z,67.37
2018-06-16T02:41:37.537Z,67.24
2018-06-16T02:44:05.004Z,67.52
2018-06-16T02:46:32.450Z,67.43
2018-06-16T02:48:59.903Z,67.45
2018-06-16T02:51:27.333Z,67.63
2018-06-16T02:53:54.837Z,67.80
2018-06-16T02:56:22.372Z,67.86
2018-06-16T02:58:49.855Z,67.81
2018-06-16T03:01:17.342Z,67.70
2018-06-16T03:03:44.794Z,67.55
2018-06-16T03:06:12.333Z,67.56
2018-06-16T03:08:39.791Z,67.83
2018-06-16T03:11:07.310Z,68.18
2018-06-16T03:13:34.726Z,67.95
2018-06-16T03:16:02.189Z,67.65
2018-06-16T03:18:29.652Z,68.10
2018-06-16T03:20:57.087Z,67.36
2018-06-16T03:23:24.542Z,68.14
2018-06-16T03:25:52.071Z,68.20
2018-06-16T03:28:19.468Z,68.75
2018-06-16T03:30:46.907Z,68.99
2018-06-16T03:33:14.341Z,69.10
2018-06-16T03:35:41.827Z,69.43
2018-06-16T03:38:09.242Z,69.30
2018-06-16T03:40:36.715Z,69.12
2018-06-16T03:43:04.164Z,69.05
2018-06-16T03:45:31.654Z,68.91
2018-06-16T03:47:59.231Z,68.87
2018-06-16T03:50:26.884Z,68.89
2018-06-16T03:52:54.395Z,69.17
2018-06-16T03:55:21.898Z,69.64
2018-06-16T03:57:49.318Z,69.70
2018-06-16T04:00:16.754Z,69.78
2018-06-16T04:02:44.214Z,69.84
2018-06-16T04:05:11.652Z,69.67
2018-06-16T04:07:39.042Z,69.44
2018-06-16T04:10:06.492Z,69.14
2018-06-16T04:12:33.980Z,68.72
2018-06-16T04:15:01.497Z,68.50
2018-06-16T04:17:28.937Z,68.61
2018-06-16T04:19:56.434Z,68.62
2018-06-16T04:22:24.003Z,68.79
2018-06-16T04:24:51.448Z,68.53
2018-06-16T04:27:18.947Z,68.21
2018-06-16T04:29:46.400Z,67.82
2018-06-16T04:32:13.876Z,67.63
2018-06-16T04:34:41.371Z,67.38
2018-06-16T04:37:08.788Z,67.18
2018-06-16T04:39:36.230Z,66.92
2018-06-16T04:42:03.630Z,66.54
2018-06-16T04:44:31.095Z,66.30
2018-06-16T04:46:58.518Z,66.03
2018-06-16T04:49:25.984Z,65.67
2018-06-16T04:51:53.447Z,65.08
2018-06-16T04:54:20.914Z,64.78
2018-06-16T04:56:48.400Z,64.65
2018-06-16T04:59:15.884Z,64.67
2018-06-16T05:01:43.327Z,64.43
2018-06-16T05:04:10.747Z,64.42
2018-06-16T05:06:38.239Z,64.17
2018-06-16T05:09:05.703Z,64.18
2018-06-16T05:11:33.132Z,63.98
2018-06-16T05:14:00.552Z,63.66
2018-06-16T05:16:28.090Z,62.83
2018-06-16T05:18:55.548Z,62.45
2018-06-16T05:21:23.013Z,62.53
2018-06-16T05:23:50.452Z,62.10
2018-06-16T05:26:17.838Z,61.67
2018-06-16T05:28:45.403Z,60.83
2018-06-16T05:31:12.885Z,61.25
2018-06-16T05:33:40.366Z,61.12
2018-06-16T05:36:07.845Z,61.41
2018-06-16T05:38:35.242Z,60.48
2018-06-16T05:41:02.785Z,60.05
2018-06-16T05:43:30.404Z,59.20
2018-06-16T05:45:57.935Z,58.52
2018-06-16T05:48:25.427Z,58.10
2018-06-16T05:50:52.878Z,57.94
2018-06-16T05:53:20.372Z,57.53
2018-06-16T05:55:47.816Z,57.31
2018-06-16T05:58:15.328Z,57.19
2018-06-16T06:00:42.800Z,57.02
2018-06-16T06:03:10.250Z,56.94
2018-06-16T06:05:37.741Z,57.28
2018-06-16T06:08:05.192Z,57.06
2018-06-16T06:10:32.750Z,56.63
2018-06-16T06:13:00.228Z,56.16
2018-06-16T06:15:27.667Z,56.01
2018-06-16T06:17:55.084Z,55.77
2018-06-16T06:20:22.545Z,56.34
2018-06-16T06:22:49.935Z,56.49
2018-06-16T06:25:17.388Z,56.68
2018-06-16T06:27:44.840Z,56.09
2018-06-16T06:30:12.290Z,55.79
2018-06-16T06:32:39.716Z,55.10
2018-06-16T06:35:07.150Z,54.88
2018-06-16T06:37:34.650Z,54.31
2018-06-16T06:40:02.122Z,53.84
2018-06-16T06:42:29.594Z,53.38
2018-06-16T06:44:57.038Z,52.58
2018-06-16T06:47:24.681Z,52.38
2018-06-16T06:49:52.145Z,52.23
2018-06-16T06:52:19.611Z,52.18
2018-06-16T06:54:47.085Z,52.25
2018-06-16T06:57:14.572Z,52.20
2018-06-16T06:59:42.023Z,51.92
2018-06-16T07:02:09.592Z,51.25
2018-06-16T07:04:37.027Z,50.47
2018-06-16T07:07:04.487Z,50.43
2018-06-16T07:09:32.002Z,49.30
2018-06-16T07:11:59.412Z,48.36
2018-06-16T07:14:26.851Z,48.53
2018-06-16T07:16:54.410Z,48.53
2018-06-16T07:19:21.960Z,48.47
2018-06-16T07:21:49.397Z,48.26
2018-06-16T07:24:16.859Z,47.37
2018-06-16T07:26:44.379Z,46.66
2018-06-16T07:29:11.943Z,46.60
2018-06-16T07:31:39.385Z,46.64
2018-06-16T07:34:06.802Z,46.16
2018-06-16T07:36:34.203Z,45.99
2018-06-16T07:39:01.761Z,45.21
2018-06-16T07:41:29.324Z,45.71
2018-06-16T07:43:56.728Z,44.46
2018-06-16T07:46:24.188Z,44.19
2018-06-16T07:48:51.710Z,44.19
2018-06-16T07:51:19.582Z,44.34
2018-06-16T07:53:47.077Z,44.13
2018-06-16T07:56:14.607Z,43.79
2018-06-16T07:58:42.186Z,43.03
2018-06-16T08:01:09.648Z,43.89
2018-06-16T08:03:37.140Z,44.36
2018-06-16T08:06:04.591Z,43.80
2018-06-16T08:08:31.997Z,44.01
2018-06-16T08:10:59.442Z,44.00
2018-06-16T08:13:27.043Z,44.22
2018-06-16T08:15:54.583Z,43.40
2018-06-16T08:18:22.018Z,42.01
2018-06-16T08:20:49.449Z,41.82
2018-06-16T08:23:16.976Z,40.45
2018-06-16T08:25:44.490Z,41.46
2018-06-16T08:28:11.977Z,42.13
2018-06-16T08:30:39.427Z,41.37
2018-06-16T08:33:07.281Z,41.25
2018-06-16T08:35:34.698Z,40.54
2018-06-16T08:38:02.210Z,41.33
2018-06-16T08:40:29.647Z,41.65
2018-06-16T08:42:57.108Z,41.63
2018-06-16T08:45:24.655Z,41.66
2018-06-16T08:47:52.088Z,42.14
2018-06-16T08:50:19.562Z,40.54
2018-06-16T08:52:47.030Z,39.66
2018-06-16T08:55:14.507Z,39.82
2018-06-16T08:57:42.372Z,40.67
2018-06-16T09:00:09.851Z,40.32
2018-06-16T09:02:37.321Z,40.53
2018-06-16T09:05:04.781Z,40.63
2018-06-16T09:07:32.332Z,40.77
2018-06-16T09:09:59.806Z,40.69
2018-06-16T09:12:27.231Z,40.99
2018-06-16T09:14:54.712Z,40.09
2018-06-16T09:17:22.270Z,39.43
2018-06-16T09:19:50.179Z,38.68
2018-06-16T09:22:17.676Z,38.44
2018-06-16T09:24:45.120Z,39.12
2018-06-16T09:27:12.529Z,39.51
2018-06-16T09:29:40.038Z,39.50
2018-06-16T09:32:07.495Z,39.60
2018-06-16T09:34:35.445Z,39.13
2018-06-16T09:37:02.904Z,39.74
2018-06-16T09:39:30.919Z,39.80
2018-06-16T09:41:58.369Z,39.60
2018-06-16T09:44:25.951Z,38.75
2018-06-16T09:46:53.384Z,38.13
2018-06-16T09:49:20.842Z,38.69
2018-06-16T09:51:48.359Z,39.20
2018-06-16T09:54:16.968Z,38.43
2018-06-16T09:56:44.448Z,38.13
2018-06-16T09:59:12.095Z,38.01
2018-06-16T10:01:39.572Z,37.43
2018-06-16T10:04:07.035Z,37.45
2018-06-16T10:06:34.487Z,37.98
2018-06-16T10:09:02.217Z,38.21
2018-06-16T10:11:29.711Z,38.31
2018-06-16T10:13:57.176Z,38.29
2018-06-16T10:16:24.649Z,38.45
2018-06-16T10:18:52.160Z,38.03
2018-06-16T10:21:19.669Z,36.81
2018-06-16T10:23:47.134Z,37.17
2018-06-16T10:26:14.579Z,37.19
2018-06-16T10:28:42.164Z,37.18
2018-06-16T10:31:09.612Z,37.68
2018-06-16T10:33:37.128Z,37.87
2018-06-16T10:36:04.587Z,37.75
2018-06-16T10:38:32.060Z,37.77
2018-06-16T10:40:59.923Z,38.33
2018-06-16T10:43:27.405Z,37.68
2018-06-16T10:45:54.844Z,37.35
2018-06-16T10:48:22.494Z,35.64
2018-06-16T10:50:49.950Z,35.45
2018-06-16T10:53:17.399Z,35.01
2018-06-16T10:55:45.760Z,34.90
2018-06-16T10:58:13.242Z,34.96
2018-06-16T11:00:40.813Z,34.24
2018-06-16T11:03:08.888Z,33.42
2018-06-16T11:05:36.470Z,32.92
2018-06-16T11:08:03.890Z,32.61
2018-06-16T11:10:31.359Z,32.82
2018-06-16T11:12:59.002Z,32.67
2018-06-16T11:15:26.478Z,31.79
2018-06-16T11:17:53.951Z,31.35
2018-06-16T11:20:20.935Z,30.70
2018-06-16T11:22:47.912Z,31.13
2018-06-16T11:25:14.941Z,30.93
2018-06-16T11:27:42.413Z,29.98
2018-06-16T11:30:09.861Z,29.84
2018-06-16T11:32:37.271Z,29.96
2018-06-16T11:35:04.855Z,30.67
2018-06-16T11:37:32.314Z,30.99
2018-06-16T11:39:59.731Z,30.95
2018-06-16T11:42:27.162Z,30.77
2018-06-16T11:44:54.661Z,30.34
2018-06-16T11:47:22.146Z,30.54
2018-06-16T11:49:49.653Z,30.24
2018-06-16T11:52:17.334Z,30.03
2018-06-16T11:54:44.907Z,30.25
2018-06-16T11:57:12.349Z,29.94
2018-06-16T11:59:39.952Z,30.05
2018-06-16T12:02:07.462Z,30.81
2018-06-16T12:04:34.908Z,30.53
2018-06-16T12:07:02.880Z,30.49
2018-06-16T12:09:30.346Z,29.35
2018-06-16T12:11:57.780Z,28.77
2018-06-16T12:14:25.314Z,28.11
2018-06-16T12:16:52.775Z,27.21
2018-06-16T12:19:20.291Z,26.37
2018-06-16T12:21:47.783Z,26.87
2018-06-16T12:24:15.396Z,28.09
2018-06-16T12:26:42.869Z,27.65
2018-06-16T12:29:10.426Z,26.72
2018-06-16T12:31:38.077Z,25.77
2018-06-16T12:34:05.624Z,24.77
2018-06-16T12:36:33.077Z,25.52
2018-06-16T12:39:00.607Z,26.40
2018-06-16T12:41:28.253Z,27.47
2018-06-16T12:43:55.788Z,25.88
2018-06-16T12:46:23.237Z,24.32
2018-06-16T12:48:50.787Z,24.94
2018-06-16T12:51:18.251Z,24.91
2018-06-16T12:53:45.686Z,24.60
2018-06-16T12:56:13.132Z,25.54
2018-06-16T12:58:40.607Z,24.81
2018-06-16T13:01:08.055Z,25.27
2018-06-16T13:03:35.635Z,25.05
2018-06-16T13:06:03.119Z,24.70
2018-06-16T13:08:30.631Z,25.26
2018-06-16T13:10:58.113Z,23.22
2018-06-16T13:13:25.591Z,23.43
2018-06-16T13:15:53.058Z,23.80
2018-06-16T13:18:20.571Z,23.22
2018-06-16T13:20:47.554Z,23.89
2018-06-16T13:23:14.519Z,24.78
2018-06-16T13:25:41.535Z,24.67
2018-06-16T13:28:08.603Z,25.64
2018-06-16T13:30:36.014Z,25.98
2018-06-16T13:33:04.475Z,26.96
2018-06-16T13:35:31.654Z,26.64
2018-06-16T13:37:58.710Z,26.88
2018-06-16T13:40:26.134Z,26.81
2018-06-16T13:42:53.334Z,27.03
2018-06-16T13:45:20.806Z,27.64
2018-06-16T13:47:47.845Z,28.03
2018-06-16T13:50:14.891Z,28.96
2018-06-16T13:52:42.332Z,28.47
2018-06-16T13:55:09.429Z,28.25
2018-06-16T13:57:36.835Z,27.69
2018-06-16T14:00:03.869Z,27.20
2018-06-16T14:02:31.428Z,27.96
2018-06-16T14:04:58.916Z,28.52
2018-06-16T14:07:26.339Z,29.38
2018-06-16T14:09:54.286Z,30.00
2018-06-16T14:12:21.766Z,30.12
2018-06-16T14:14:50.312Z,29.81
2018-06-16T14:17:17.727Z,30.09
2018-06-16T14:19:45.134Z,29.99
2018-06-16T14:22:12.598Z,29.49
2018-06-16T14:24:40.055Z,29.94
2018-06-16T14:27:07.557Z,30.34
2018-06-16T14:29:35.275Z,30.54
2018-06-16T14:32:02.730Z,30.78
2018-06-16T14:34:30.134Z,30.76
2018-06-16T14:36:57.600Z,30.82
2018-06-16T14:39:25.026Z,31.53
2018-06-16T14:41:52.541Z,31.56
2018-06-16T14:44:19.994Z,31.23
2018-06-16T14:46:47.483Z,31.51
2018-06-16T14:49:14.986Z,32.04
2018-06-16T14:51:42.417Z,32.32
2018-06-16T14:54:09.847Z,32.57
2018-06-16T14:56:37.326Z,33.25
2018-06-16T14:59:04.765Z,33.44
2018-06-16T15:01:32.282Z,34.04
2018-06-16T15:03:59.720Z,34.87
2018-06-16T15:06:27.807Z,35.03
2018-06-16T15:08:55.364Z,34.97
2018-06-16T15:11:22.993Z,34.33
2018-06-16T15:13:51.346Z,34.31
2018-06-16T15:16:18.810Z,34.65
2018-06-16T15:18:46.248Z,34.55
2018-06-16T15:21:13.659Z,34.37
2018-06-16T15:23:41.212Z,34.45
2018-06-16T15:26:08.739Z,34.43
2018-06-16T15:28:36.245Z,34.09
2018-06-16T15:31:03.888Z,34.48
2018-06-16T15:33:31.587Z,34.38
2018-06-16T15:35:59.103Z,33.89
2018-06-16T15:38:27.025Z,33.73
2018-06-16T15:40:54.601Z,34.51
2018-06-16T15:43:22.263Z,35.12
2018-06-16T15:45:50.507Z,35.08
2018-06-16T15:48:18.152Z,35.03
2018-06-16T15:50:46.268Z,35.25
2018-06-16T15:53:13.798Z,36.35
2018-06-16T15:55:41.359Z,36.06
2018-06-16T15:58:08.791Z,35.75
2018-06-16T16:00:36.394Z,35.74
2018-06-16T16:03:03.931Z,35.94
2018-06-16T16:05:31.409Z,36.19
2018-06-16T16:07:58.954Z,35.47
2018-06-16T16:10:27.549Z,35.20
2018-06-16T16:12:55.045Z,35.43
2018-06-16T16:15:22.484Z,35.38
2018-06-16T16:17:49.932Z,35.17
2018-06-16T16:20:17.494Z,35.30
2018-06-16T16:22:45.047Z,35.19
2018-06-16T16:25:12.515Z,35.23
2018-06-16T16:27:40.016Z,35.82
2018-06-16T16:30:07.472Z,35.87
2018-06-16T16:32:35.110Z,36.13
2018-06-16T16:35:02.654Z,36.70
2018-06-16T16:37:30.121Z,37.40
2018-06-16T16:39:57.565Z,37.08
2018-06-16T16:42:25.046Z,36.87
2018-06-16T16:44:52.941Z,36.66
2018-06-16T16:47:20.744Z,36.62
2018-06-16T16:49:48.259Z,36.70
2018-06-16T16:52:15.701Z,36.46
2018-06-16T16:54:43.182Z,36.44
2018-06-16T16:57:10.652Z,36.64
2018-06-16T16:59:39.030Z,36.82
2018-06-16T17:02:06.503Z,36.79
2018-06-16T17:04:33.968Z,36.57
2018-06-16T17:07:02.253Z,36.87
2018-06-16T17:09:29.759Z,36.69
2018-06-16T17:11:57.561Z,37.08
2018-06-16T17:14:25.188Z,37.26
2018-06-16T17:16:52.661Z,37.26
2018-06-16T17:19:20.176Z,37.85
2018-06-16T17:21:47.742Z,38.54
2018-06-16T17:24:15.438Z,38.10
2018-06-16T17:26:43.060Z,38.26
2018-06-16T17:29:10.563Z,38.63
2018-06-16T17:31:38.008Z,38.83
2018-06-16T17:34:05.430Z,38.70
2018-06-16T17:36:32.921Z,38.64
2018-06-16T17:39:00.486Z,39.20
2018-06-16T17:41:27.970Z,38.95
2018-06-16T17:43:55.537Z,39.07
2018-06-16T17:46:23.370Z,39.37
2018-06-16T17:48:50.864Z,38.75
2018-06-16T17:51:18.614Z,39.14
2018-06-16T17:53:46.225Z,38.87
2018-06-16T17:56:13.762Z,38.84
2018-06-16T17:58:41.274Z,38.76
2018-06-16T18:01:08.733Z,38.96
2018-06-16T18:03:36.272Z,39.29
2018-06-16T18:06:04.746Z,39.50
2018-06-16T18:08:32.242Z,39.72
2018-06-16T18:10:59.783Z,40.07
2018-06-16T18:13:27.393Z,40.16
2018-06-16T18:15:55.009Z,40.46
2018-06-16T18:18:22.529Z,40.65
2018-06-16T18:20:50.298Z,40.90
2018-06-16T18:23:17.345Z,40.78
2018-06-16T18:25:45.004Z,41.07
2018-06-16T18:28:12.109Z,41.27
2018-06-16T18:30:39.242Z,41.38
2018-06-16T18:33:07.161Z,41.46
2018-06-16T18:35:34.665Z,41.61
2018-06-16T18:38:02.191Z,41.58
2018-06-16T18:40:29.627Z,41.69
2018-06-16T18:42:57.303Z,41.96
2018-06-16T18:45:24.820Z,42.06
2018-06-16T18:47:52.634Z,41.73
2018-06-16T18:50:20.118Z,42.16
2018-06-16T18:52:48.189Z,42.16
2018-06-16T18:55:15.784Z,42.00
2018-06-16T18:57:43.263Z,42.03
2018-06-16T19:00:10.774Z,41.98
2018-06-16T19:02:38.197Z,42.14
2018-06-16T19:05:05.939Z,42.44
2018-06-16T19:07:33.412Z,42.25
2018-06-16T19:10:00.903Z,42.38
2018-06-16T19:12:28.431Z,42.42
2018-06-16T19:14:55.919Z,42.44
2018-06-16T19:17:23.373Z,42.31
2018-06-16T19:19:50.894Z,42.28
2018-06-16T19:22:18.400Z,42.30
2018-06-16T19:24:45.968Z,42.31
2018-06-16T19:27:13.448Z,42.40
2018-06-16T19:29:40.946Z,42.42
2018-06-16T19:32:08.526Z,42.47
2018-06-16T19:34:36.020Z,42.43
2018-06-16T19:37:03.570Z,42.39
2018-06-16T19:39:32.126Z,42.58
2018-06-16T19:41:59.586Z,42.58
2018-06-16T19:44:27.143Z,42.62
2018-06-16T19:46:54.611Z,42.68
2018-06-16T19:49:22.026Z,42.70
2018-06-16T19:51:49.925Z,42.69
2018-06-16T19:54:17.640Z,42.83
2018-06-16T19:56:45.111Z,42.77
2018-06-16T19:59:12.524Z,42.87
2018-06-16T20:01:40.110Z,42.95
2018-06-16T20:04:07.696Z,42.63
2018-06-16T20:06:36.126Z,42.62
2018-06-16T20:09:03.555Z,42.72
2018-06-16T20:11:31.111Z,42.52
2018-06-16T20:13:58.617Z,42.35
2018-06-16T20:16:26.078Z,42.32
2018-06-16T20:18:53.572Z,42.29
2018-06-16T20:21:21.072Z,42.33
2018-06-16T20:23:48.551Z,42.43
2018-06-16T20:26:15.999Z,42.51
2018-06-16T20:28:43.417Z,42.22
2018-06-16T20:31:10.861Z,42.43
2018-06-16T20:33:38.506Z,42.29
2018-06-16T20:36:05.944Z,42.15
2018-06-16T20:38:33.410Z,42.15
2018-06-16T20:41:01.031Z,41.75
2018-06-16T20:43:28.604Z,41.59
2018-06-16T20:45:56.196Z,41.77
2018-06-16T20:48:24.355Z,41.67
2018-06-16T20:50:51.841Z,41.72
2018-06-16T20:53:20.045Z,41.98
2018-06-16T20:55:47.713Z,42.20
2018-06-16T20:58:15.247Z,42.55
2018-06-16T21:00:42.913Z,43.03
2018-06-16T21:03:10.506Z,43.28
2018-06-16T21:05:38.181Z,43.63
2018-06-16T21:08:05.615Z,44.00
2018-06-16T21:10:33.048Z,44.31
2018-06-16T21:13:00.625Z,44.95
2018-06-16T21:15:28.039Z,45.00
2018-06-16T21:17:55.501Z,45.47
2018-06-16T21:20:22.956Z,45.63
2018-06-16T21:22:50.401Z,45.80
2018-06-16T21:25:18.562Z,46.04
2018-06-16T21:27:47.378Z,46.72
2018-06-16T21:30:15.032Z,46.87
2018-06-16T21:32:42.991Z,47.02
2018-06-16T21:35:10.470Z,47.19
2018-06-16T21:37:37.909Z,47.28
2018-06-16T21:40:05.409Z,47.56
2018-06-16T21:42:32.849Z,47.71
2018-06-16T21:45:00.316Z,47.93
2018-06-16T21:47:27.842Z,48.35
2018-06-16T21:49:55.616Z,48.48
2018-06-16T21:52:23.126Z,48.70
2018-06-16T21:54:50.761Z,48.93
2018-06-16T21:57:18.356Z,49.04
2018-06-16T21:59:45.839Z,49.17
2018-06-16T22:02:13.357Z,49.42
2018-06-16T22:04:40.880Z,49.56
2018-06-16T22:07:08.669Z,49.78
2018-06-16T22:09:36.292Z,49.79
2018-06-16T22:12:03.766Z,49.84
2018-06-16T22:14:31.346Z,49.86
2018-06-16T22:16:58.874Z,50.10
2018-06-16T22:19:26.361Z,50.13
2018-06-16T22:21:53.800Z,50.12
2018-06-16T22:24:21.388Z,50.09
2018-06-16T22:26:48.954Z,50.22
2018-06-16T22:29:16.590Z,50.31
2018-06-16T22:31:44.120Z,50.30
2018-06-16T22:34:11.686Z,50.09
2018-06-16T22:36:39.118Z,50.01
2018-06-16T22:39:06.679Z,50.15
2018-06-16T22:41:34.318Z,50.00
2018-06-16T22:44:01.874Z,49.92
2018-06-16T22:46:29.424Z,50.08
2018-06-16T22:48:56.875Z,50.08
2018-06-16T22:51:24.508Z,49.96
2018-06-16T22:53:53.001Z,50.08
2018-06-16T22:56:20.568Z,50.03
2018-06-16T22:58:48.024Z,50.08
2018-06-16T23:01:15.666Z,50.03
2018-06-16T23:03:43.169Z,50.02
2018-06-16T23:06:11.612Z,49.90
2018-06-16T23:08:39.389Z,50.01
2018-06-16T23:11:06.875Z,50.17
2018-06-16T23:13:34.508Z,50.14
2018-06-16T23:16:02.094Z,50.76
2018-06-16T23:18:29.666Z,51.50
2018-06-16T23:20:57.206Z,52.02
2018-06-16T23:23:24.744Z,51.98
2018-06-16T23:25:52.220Z,51.61
2018-06-16T23:28:19.715Z,51.96
2018-06-16T23:30:47.140Z,52.08
2018-06-16T23:33:14.591Z,52.13
2018-06-16T23:35:42.083Z,52.19
2018-06-16T23:38:09.617Z,51.90
2018-06-16T23:40:37.583Z,51.44
2018-06-16T23:43:05.206Z,51.32
2018-06-16T23:45:32.791Z,50.95
2018-06-16T23:48:00.252Z,50.92
2018-06-16T23:50:27.755Z,50.76
2018-06-16T23:52:55.438Z,50.74
2018-06-16T23:55:22.970Z,51.02
2018-06-16T23:57:50.452Z,51.10
